Time;durP1;ratioP1;P1;durP2;ratioP2;P2;SDS_P1;SDS_P2;PMS_P1;PMS_P2;Temp;Humidity;BMP_temperature;BMP_pressure;BME280_temperature;BME280_humidity;BME280_pressure;Samples;Min_cycle;Max_cycle;Signal;HPM_P1;HPM_P2
2022/12/08 00:01:56;;;;;;;18.43;13.03;;;5.30;1.00;;;;;;5016819;28;20180;-66
2022/12/08 00:04:21;;;;;;;15.60;11.30;;;5.30;1.00;;;;;;5013514;28;20173;-65
2022/12/08 00:09:33;;;;;;;16.20;11.17;;;5.20;16.30;;;;;;5027155;28;20553;-66
2022/12/08 00:12:00;;;;;;;15.97;11.10;;;5.20;1.00;;;;;;5032050;28;20415;-66
2022/12/08 00:14:32;;;;;;;16.50;12.70;;;5.20;99.90;;;;;;5032776;28;20485;-66
2022/12/08 00:16:59;;;;;;;15.73;12.10;;;5.20;30.70;;;;;;5031329;28;20529;-66
2022/12/08 00:19:25;;;;;;;17.47;12.30;;;5.30;16.70;;;;;;5032414;28;20922;-66
2022/12/08 00:21:52;;;;;;;16.70;11.20;;;5.20;99.90;;;;;;5032222;28;20419;-66
2022/12/08 00:24:19;;;;;;;17.43;12.53;;;5.20;99.90;;;;;;5032738;28;20457;-66
2022/12/08 00:26:45;;;;;;;19.90;14.17;;;5.20;99.90;;;;;;5028337;28;20491;-66
2022/12/08 00:29:11;;;;;;;17.90;13.87;;;5.10;99.90;;;;;;5031145;28;20427;-66
2022/12/08 00:31:37;;;;;;;18.27;13.10;;;5.10;99.90;;;;;;5031785;28;20440;-66
2022/12/08 00:34:03;;;;;;;14.40;11.43;;;5.10;99.90;;;;;;5024763;28;20438;-66
2022/12/08 00:36:29;;;;;;;15.77;12.30;;;5.10;99.90;;;;;;5032805;28;20199;-66
2022/12/08 00:38:56;;;;;;;23.00;12.50;;;5.20;99.90;;;;;;5032340;28;20486;-65
2022/12/08 00:44:10;;;;;;;21.70;13.20;;;5.20;99.90;;;;;;5030040;28;20461;-66
2022/12/08 00:46:36;;;;;;;15.47;12.57;;;5.20;99.90;;;;;;5031573;28;20406;-66
2022/12/08 00:49:03;;;;;;;17.00;12.77;;;5.20;99.90;;;;;;5031992;28;20541;-66
2022/12/08 00:51:30;;;;;;;16.87;12.70;;;5.20;99.90;;;;;;5030111;28;20422;-65
2022/12/08 00:53:55;;;;;;;19.33;12.40;;;5.20;99.90;;;;;;5031510;28;20410;-67
2022/12/08 00:56:22;;;;;;;16.67;14.00;;;5.20;99.90;;;;;;5031528;28;20418;-67
2022/12/08 00:58:48;;;;;;;19.67;12.33;;;5.20;99.90;;;;;;5031314;28;20211;-66
2022/12/08 01:01:13;;;;;;;18.73;12.90;;;5.10;99.90;;;;;;5029125;28;20508;-65
2022/12/08 01:03:40;;;;;;;20.07;12.80;;;5.20;99.90;;;;;;5031430;28;20262;-67
2022/12/08 01:06:07;;;;;;;32.07;14.60;;;5.20;99.90;;;;;;5031008;28;20258;-65
2022/12/08 01:08:33;;;;;;;31.57;13.30;;;5.20;99.90;;;;;;5031164;28;20910;-65
2022/12/08 01:11:11;;;;;;;41.97;16.00;;;5.20;99.90;;;;;;5025840;28;20430;-65
2022/12/08 01:13:37;;;;;;;21.67;14.10;;;5.20;99.90;;;;;;5031372;28;20484;-66
2022/12/08 01:16:03;;;;;;;18.23;12.40;;;5.20;99.90;;;;;;5030956;28;20440;-66
2022/12/08 01:18:28;;;;;;;21.70;13.40;;;5.20;99.90;;;;;;5031070;28;20321;-67
2022/12/08 01:21:00;;;;;;;19.87;13.33;;;5.20;99.90;;;;;;5030505;28;20913;-66
2022/12/08 01:23:26;;;;;;;23.03;12.43;;;5.10;99.90;;;;;;5031552;28;20180;-65
2022/12/08 01:25:52;;;;;;;20.97;13.40;;;5.10;99.90;;;;;;5031408;28;20402;-65
2022/12/08 01:28:18;;;;;;;20.03;12.20;;;5.10;99.90;;;;;;5031486;28;20437;-65
2022/12/08 01:30:43;;;;;;;17.27;13.20;;;5.10;99.90;;;;;;5030632;28;20207;-66
2022/12/08 01:33:09;;;;;;;14.47;12.63;;;5.00;99.90;;;;;;5031351;28;20253;-65
2022/12/08 01:35:35;;;;;;;14.70;11.80;;;5.00;99.90;;;;;;5029784;28;20176;-65
2022/12/08 01:38:00;;;;;;;14.20;11.50;;;5.00;99.90;;;;;;5031368;28;20199;-65
2022/12/08 01:40:26;;;;;;;15.70;12.73;;;4.90;99.90;;;;;;5023386;28;20827;-66
2022/12/08 01:42:52;;;;;;;26.53;13.27;;;5.00;99.90;;;;;;5024974;28;20179;-67
2022/12/08 01:45:31;;;;;;;14.80;10.70;;;5.00;99.90;;;;;;5030504;28;20175;-67
2022/12/08 01:48:06;;;;;;;15.03;11.33;;;4.90;99.90;;;;;;5030708;28;20186;-67
2022/12/08 01:50:33;;;;;;;18.23;12.63;;;4.90;99.90;;;;;;5029610;28;20469;-67
2022/12/08 01:53:07;;;;;;;20.80;13.03;;;4.90;99.90;;;;;;5028675;28;20441;-67
2022/12/08 01:55:55;;;;;;;17.23;12.20;;;4.90;99.90;;;;;;5029812;28;20449;-66
2022/12/08 01:58:49;;;;;;;20.87;12.13;;;4.90;99.90;;;;;;5029297;28;20515;-67
2022/12/08 02:01:16;;;;;;;18.70;13.17;;;4.90;99.90;;;;;;5029176;28;20442;-67
2022/12/08 02:04:00;;;;;;;18.87;12.67;;;4.90;99.90;;;;;;5019448;28;20435;-66
2022/12/08 02:06:35;;;;;;;18.30;14.20;;;4.80;1.00;;;;;;5023309;28;20497;-67
2022/12/08 02:09:02;;;;;;;22.57;13.40;;;4.80;1.00;;;;;;5030688;28;20445;-67
2022/12/08 02:11:28;;;;;;;19.63;12.83;;;4.70;1.00;;;;;;5027451;28;20581;-66
2022/12/08 02:13:56;;;;;;;24.03;12.50;;;4.70;1.00;;;;;;5027196;28;20403;-66
2022/12/08 02:16:43;;;;;;;23.63;12.57;;;4.70;1.00;;;;;;5030291;28;20791;-66
2022/12/08 02:19:11;;;;;;;21.20;11.73;;;4.70;1.00;;;;;;5030348;28;20833;-66
2022/12/08 02:21:47;;;;;;;15.77;11.50;;;4.70;1.00;;;;;;5023822;28;20427;-66
2022/12/08 02:24:32;;;;;;;17.70;12.83;;;4.70;1.00;;;;;;5029318;28;20402;-66
2022/12/08 02:27:12;;;;;;;16.57;12.83;;;4.70;1.00;;;;;;5030237;28;20537;-66
2022/12/08 02:30:04;;;;;;;16.10;11.90;;;4.70;1.00;;;;;;5029104;28;20637;-66
2022/12/08 02:32:57;;;;;;;22.00;10.20;;;4.70;1.00;;;;;;5023232;28;20502;-66
2022/12/08 02:35:35;;;;;;;20.73;11.87;;;4.60;1.00;;;;;;5030320;28;20481;-66
2022/12/08 02:38:21;;;;;;;14.53;10.90;;;4.60;1.00;;;;;;5029657;28;20965;-66
2022/12/08 02:41:12;;;;;;;15.10;11.03;;;4.60;1.00;;;;;;5026134;28;20430;-66
2022/12/08 02:43:46;;;;;;;13.33;10.97;;;4.60;1.00;;;;;;5009632;28;20426;-65
2022/12/08 02:46:34;;;;;;;17.50;12.37;;;4.50;1.00;;;;;;5010397;28;20797;-66
2022/12/08 02:49:01;;;;;;;16.40;12.10;;;4.50;1.00;;;;;;5010553;28;20469;-65
2022/12/08 02:51:27;;;;;;;13.20;10.27;;;4.40;1.00;;;;;;5040579;23;20544;-66
2022/12/08 02:53:52;;;;;;;14.93;11.00;;;4.40;1.00;;;;;;5010521;28;20498;-66
2022/12/08 02:56:47;;;;;;;14.63;10.83;;;4.40;1.00;;;;;;5010324;28;20176;-66
2022/12/08 02:59:34;;;;;;;14.07;10.47;;;4.40;1.00;;;;;;5021122;28;20563;-65
2022/12/08 03:02:22;;;;;;;14.63;11.10;;;4.40;99.90;;;;;;5009600;28;20400;-65
2022/12/08 03:05:09;;;;;;;20.23;12.17;;;4.10;1.00;;;;;;5010188;28;20453;-66
2022/12/08 03:07:46;;;;;;;12.03;10.30;;;3.90;35.90;;;;;;5009249;28;20434;-64
2022/12/08 03:10:20;;;;;;;15.90;10.80;;;3.90;99.90;;;;;;4998716;28;20432;-66
2022/12/08 03:12:55;;;;;;;17.83;11.57;;;3.90;1.00;;;;;;4990228;28;20487;-65
2022/12/08 03:15:21;;;;;;;13.27;9.90;;;4.00;99.90;;;;;;4990463;28;20395;-65
2022/12/08 03:17:57;;;;;;;15.00;10.97;;;4.00;99.90;;;;;;5001087;28;20586;-64
2022/12/08 03:20:26;;;;;;;15.20;10.97;;;3.90;99.90;;;;;;4990162;28;20436;-66
2022/12/08 03:22:55;;;;;;;29.80;10.37;;;3.90;99.90;;;;;;4990895;28;20400;-65
2022/12/08 03:25:23;;;;;;;12.13;10.43;;;4.00;1.00;;;;;;4990147;28;20404;-65
2022/12/08 03:27:50;;;;;;;11.77;9.07;;;4.00;1.00;;;;;;5000297;28;20438;-64
2022/12/08 03:30:16;;;;;;;17.13;9.00;;;3.90;1.00;;;;;;4998339;28;20475;-65
2022/12/08 03:33:01;;;;;;;19.60;9.57;;;3.90;1.00;;;;;;4994978;28;20415;-63
2022/12/08 03:35:32;;;;;;;25.47;10.00;;;3.90;1.00;;;;;;5009875;28;20425;-65
2022/12/08 03:38:02;;;;;;;15.27;10.40;;;4.00;1.00;;;;;;5008548;28;20536;-65
2022/12/08 03:40:28;;;;;;;14.40;10.40;;;4.00;1.00;;;;;;4995456;28;20956;-63
2022/12/08 03:42:54;;;;;;;16.23;10.03;;;4.00;1.00;;;;;;4990563;28;20443;-66
2022/12/08 03:45:20;;;;;;;11.93;9.67;;;4.10;99.90;;;;;;4990221;28;20202;-65
2022/12/08 03:47:46;;;;;;;12.37;8.77;;;4.00;99.90;;;;;;5000053;28;20182;-65
2022/12/08 03:50:12;;;;;;;12.00;9.53;;;3.90;99.90;;;;;;5007271;28;20478;-66
2022/12/08 03:52:37;;;;;;;17.10;9.63;;;3.80;99.90;;;;;;5009330;28;20883;-65
2022/12/08 03:55:03;;;;;;;12.97;9.80;;;3.90;99.90;;;;;;5007980;28;20293;-66
2022/12/08 03:57:29;;;;;;;12.93;10.00;;;3.80;99.90;;;;;;5008972;28;20571;-65
2022/12/08 03:59:55;;;;;;;12.90;8.57;;;3.70;99.90;;;;;;5000977;28;20436;-66
2022/12/08 04:02:20;;;;;;;19.33;10.80;;;3.70;99.90;;;;;;4989426;28;20170;-66
2022/12/08 04:04:46;;;;;;;13.40;9.80;;;3.70;99.90;;;;;;4989960;28;20219;-65
2022/12/08 04:07:12;;;;;;;12.70;8.90;;;3.50;99.90;;;;;;4997027;28;20172;-64
2022/12/08 04:09:38;;;;;;;11.80;10.27;;;3.40;1.00;;;;;;4989661;28;20181;-65
2022/12/08 04:12:04;;;;;;;16.63;9.27;;;3.40;1.00;;;;;;4999935;28;20173;-66
2022/12/08 04:14:29;;;;;;;9.30;7.83;;;3.40;1.00;;;;;;5009442;28;20626;-65
2022/12/08 04:16:55;;;;;;;13.83;8.73;;;3.40;1.00;;;;;;5009196;28;20235;-66
2022/12/08 04:19:20;;;;;;;12.93;9.20;;;3.40;99.90;;;;;;5009451;28;20188;-65
2022/12/08 04:21:46;;;;;;;14.40;10.10;;;3.40;99.90;;;;;;5009608;28;20196;-65
2022/12/08 04:24:12;;;;;;;12.27;8.77;;;3.30;99.90;;;;;;5010520;28;20479;-65
2022/12/08 04:26:37;;;;;;;13.90;10.60;;;3.00;1.00;;;;;;5010732;28;20255;-65
2022/12/08 04:29:03;;;;;;;11.83;9.63;;;3.00;1.00;;;;;;5010989;28;20169;-65
2022/12/08 04:31:29;;;;;;;11.30;10.10;;;3.10;1.00;;;;;;5008802;28;20192;-65
2022/12/08 04:33:54;;;;;;;14.10;9.10;;;3.10;1.00;;;;;;4995006;28;20556;-65
2022/12/08 04:36:20;;;;;;;12.10;9.43;;;3.20;99.90;;;;;;4989652;28;20531;-65
2022/12/08 04:38:46;;;;;;;14.97;10.63;;;3.20;1.00;;;;;;4991748;28;20193;-64
2022/12/08 04:41:11;;;;;;;14.13;9.23;;;3.10;1.00;;;;;;4991781;28;20228;-63
2022/12/08 04:43:37;;;;;;;13.30;8.07;;;3.10;1.00;;;;;;4993155;28;20173;-65
2022/12/08 04:46:07;;;;;;;12.07;8.27;;;3.10;1.00;;;;;;4993693;28;20162;-65
2022/12/08 04:48:35;;;;;;;11.93;8.40;;;3.10;1.00;;;;;;4993046;28;20291;-65
2022/12/08 04:51:02;;;;;;;9.20;7.67;;;3.10;1.00;;;;;;4992149;28;20471;-64
2022/12/08 04:53:27;;;;;;;15.17;8.20;;;3.10;99.90;;;;;;4993289;28;20407;-65
2022/12/08 04:55:53;;;;;;;34.07;10.03;;;3.10;99.90;;;;;;4992383;28;20173;-66
2022/12/08 04:58:20;;;;;;;16.73;10.07;;;3.20;99.90;;;;;;4992902;28;20251;-65
2022/12/08 05:00:46;;;;;;;15.73;8.73;;;3.10;99.90;;;;;;4999788;28;20605;-65
2022/12/08 05:03:13;;;;;;;13.83;8.47;;;2.90;1.00;;;;;;5001777;28;20407;-63
2022/12/08 05:05:39;;;;;;;10.43;8.27;;;2.80;1.00;;;;;;4992764;28;20459;-64
2022/12/08 05:08:05;;;;;;;8.53;6.80;;;2.80;1.00;;;;;;4993283;28;20896;-66
2022/12/08 05:10:31;;;;;;;9.83;7.57;;;2.80;1.00;;;;;;4999965;28;20450;-66
2022/12/08 05:12:58;;;;;;;11.40;8.00;;;3.00;1.00;;;;;;5004264;28;20240;-65
2022/12/08 05:15:24;;;;;;;13.97;9.07;;;3.10;99.90;;;;;;4993278;28;20411;-64
2022/12/08 05:17:49;;;;;;;10.97;7.37;;;3.10;99.90;;;;;;4993161;28;20968;-65
2022/12/08 05:20:15;;;;;;;16.33;8.97;;;3.10;99.90;;;;;;5010939;28;20192;-66
2022/12/08 05:22:41;;;;;;;13.17;8.87;;;3.10;99.90;;;;;;4998326;28;20538;-64
2022/12/08 05:25:07;;;;;;;21.57;8.70;;;3.10;99.90;;;;;;4996563;28;20181;-62
2022/12/08 05:27:33;;;;;;;10.83;8.47;;;3.10;94.20;;;;;;5006455;28;20411;-66
2022/12/08 05:29:59;;;;;;;15.47;9.10;;;3.00;90.10;;;;;;4992564;28;20511;-62
2022/12/08 05:32:25;;;;;;;10.70;7.33;;;3.00;99.90;;;;;;5004999;28;20657;-64
2022/12/08 05:34:50;;;;;;;14.50;7.90;;;3.10;99.90;;;;;;4997524;28;20181;-63
2022/12/08 05:37:16;;;;;;;13.03;7.53;;;3.00;99.90;;;;;;4991719;28;20666;-65
2022/12/08 05:39:42;;;;;;;14.97;7.77;;;3.00;99.90;;;;;;4993372;28;20192;-64
2022/12/08 05:42:08;;;;;;;15.53;8.27;;;3.00;99.90;;;;;;4992472;28;20172;-63
2022/12/08 05:44:33;;;;;;;19.37;8.30;;;3.00;99.90;;;;;;4992492;28;20901;-65
2022/12/08 05:46:59;;;;;;;14.03;8.17;;;3.10;99.90;;;;;;4992126;28;20161;-65
2022/12/08 05:49:25;;;;;;;12.67;8.10;;;3.20;83.70;;;;;;4990980;28;20169;-65
2022/12/08 05:51:50;;;;;;;10.97;7.40;;;3.00;1.00;;;;;;4991344;28;20165;-63
2022/12/08 05:54:16;;;;;;;11.07;7.50;;;3.00;31.40;;;;;;4991983;28;20628;-65
2022/12/08 05:56:42;;;;;;;11.20;7.40;;;3.00;93.00;;;;;;4991668;28;20256;-63
2022/12/08 05:59:08;;;;;;;12.40;7.37;;;2.90;99.90;;;;;;4991559;28;20223;-63
2022/12/08 06:01:33;;;;;;;13.30;8.30;;;2.90;99.90;;;;;;4991091;28;20552;-65
2022/12/08 06:04:00;;;;;;;15.60;8.10;;;2.80;99.90;;;;;;5007401;28;20185;-65
2022/12/08 06:06:27;;;;;;;10.57;7.20;;;2.80;99.90;;;;;;5008028;28;20177;-65
2022/12/08 06:08:53;;;;;;;13.40;7.03;;;2.80;99.90;;;;;;5002954;28;20466;-65
2022/12/08 06:11:23;;;;;;;9.90;7.80;;;2.70;99.90;;;;;;5001986;28;20459;-65
2022/12/08 06:13:49;;;;;;;13.03;8.77;;;2.70;99.90;;;;;;5008565;28;20526;-65
2022/12/08 06:16:15;;;;;;;12.03;7.50;;;2.70;99.90;;;;;;4995955;28;20445;-67
2022/12/08 06:18:41;;;;;;;13.60;8.40;;;2.60;99.90;;;;;;4996803;28;20982;-65
2022/12/08 06:21:10;;;;;;;10.27;8.33;;;2.70;99.90;;;;;;4999275;28;20453;-65
2022/12/08 06:23:36;;;;;;;12.77;8.70;;;2.60;52.90;;;;;;5006182;28;20533;-64
2022/12/08 06:26:08;;;;;;;11.10;8.73;;;2.60;26.30;;;;;;5004917;28;20419;-66
2022/12/08 06:28:34;;;;;;;19.60;9.23;;;2.60;48.90;;;;;;5007132;28;20435;-64
2022/12/08 06:31:32;;;;;;;11.00;7.73;;;2.30;99.90;;;;;;5002197;28;20451;-63
2022/12/08 06:33:57;;;;;;;15.07;8.30;;;2.10;99.90;;;;;;5003906;28;20928;-62
2022/12/08 06:36:26;;;;;;;22.13;10.73;;;1.80;86.40;;;;;;4996455;28;20416;-65
2022/12/08 06:38:52;;;;;;;11.77;8.13;;;1.70;99.90;;;;;;4998540;28;20203;-61
2022/12/08 06:41:18;;;;;;;12.27;8.13;;;1.90;99.90;;;;;;5001917;28;20814;-66
2022/12/08 06:43:44;;;;;;;13.57;8.73;;;1.80;99.90;;;;;;4999727;28;20563;-66
2022/12/08 06:46:13;;;;;;;11.47;8.90;;;1.70;1.00;;;;;;5004224;28;20268;-67
2022/12/08 06:48:39;;;;;;;10.37;7.90;;;1.80;1.00;;;;;;5007277;28;20231;-63
2022/12/08 06:51:11;;;;;;;15.33;8.97;;;1.90;1.00;;;;;;5004005;28;20494;-63
2022/12/08 06:53:37;;;;;;;10.23;8.70;;;1.90;1.00;;;;;;4995020;28;20471;-65
2022/12/08 06:56:03;;;;;;;13.03;7.70;;;1.90;1.00;;;;;;4997566;28;20475;-63
2022/12/08 06:58:29;;;;;;;16.90;9.47;;;1.80;1.00;;;;;;4988483;28;20476;-65
2022/12/08 07:00:55;;;;;;;15.73;10.10;;;1.80;1.00;;;;;;4986755;28;20478;-63
2022/12/08 07:03:20;;;;;;;19.23;10.80;;;1.70;1.00;;;;;;4988276;28;20184;-65
2022/12/08 07:05:46;;;;;;;20.50;10.27;;;1.60;1.00;;;;;;4987571;28;20173;-65
2022/12/08 07:08:12;;;;;;;28.83;13.50;;;1.70;1.00;;;;;;4987740;28;20180;-65
2022/12/08 07:10:37;;;;;;;20.27;10.50;;;1.80;1.00;;;;;;5004546;28;20330;-62
2022/12/08 07:13:03;;;;;;;14.57;9.60;;;2.10;99.90;;;;;;5001284;28;20172;-64
2022/12/08 07:15:29;;;;;;;29.63;12.33;;;2.00;1.00;;;;;;4996982;28;20188;-64
2022/12/08 07:17:54;;;;;;;11.93;9.00;;;1.90;1.00;;;;;;5009796;28;20334;-65
2022/12/08 07:20:20;;;;;;;19.47;10.33;;;1.90;1.00;;;;;;5006573;28;20185;-66
2022/12/08 07:22:50;;;;;;;23.13;11.67;;;2.10;1.00;;;;;;4991894;28;20189;-65
2022/12/08 07:25:16;;;;;;;16.47;11.50;;;2.00;1.00;;;;;;5009434;28;20590;-63
2022/12/08 07:27:42;;;;;;;22.60;13.30;;;2.00;99.90;;;;;;5008466;28;20412;-63
2022/12/08 07:30:08;;;;;;;15.73;11.27;;;1.90;1.00;;;;;;5009834;28;20423;-63
2022/12/08 07:32:36;;;;;;;21.33;11.93;;;2.20;99.90;;;;;;5004707;28;20613;-62
2022/12/08 07:35:01;;;;;;;73.27;14.90;;;2.20;64.80;;;;;;5003648;28;20486;-65
2022/12/08 07:37:27;;;;;;;16.40;10.70;;;3.00;99.90;;;;;;5008570;28;20463;-66
2022/12/08 07:39:52;;;;;;;28.73;10.93;;;2.50;99.90;;;;;;4992955;28;20284;-66
2022/12/08 07:42:18;;;;;;;39.47;11.97;;;2.40;99.90;;;;;;4989386;28;20196;-63
2022/12/08 07:44:44;;;;;;;21.40;11.33;;;2.50;99.90;;;;;;4990645;28;20296;-63
2022/12/08 07:47:09;;;;;;;13.20;9.13;;;2.50;99.90;;;;;;4990765;28;20176;-64
2022/12/08 07:49:35;;;;;;;14.87;8.73;;;2.50;99.90;;;;;;4989877;28;20196;-65
2022/12/08 07:52:01;;;;;;;15.70;8.40;;;2.70;99.90;;;;;;4994508;28;20177;-65
2022/12/08 07:54:26;;;;;;;44.97;12.57;;;2.90;99.90;;;;;;4995066;28;20447;-66
2022/12/08 07:56:52;;;;;;;18.33;9.40;;;3.60;1.00;;;;;;4992947;28;20553;-64
2022/12/08 07:59:18;;;;;;;102.60;17.50;;;4.10;1.00;;;;;;4992861;28;20173;-65
2022/12/08 08:01:44;;;;;;;66.80;14.87;;;4.20;1.00;;;;;;4991818;28;20275;-65
2022/12/08 08:04:10;;;;;;;31.60;10.67;;;4.10;1.00;;;;;;4990358;28;20165;-63
2022/12/08 08:06:36;;;;;;;30.17;10.60;;;4.00;1.00;;;;;;4990474;28;20260;-63
2022/12/08 08:09:02;;;;;;;26.70;10.40;;;3.80;1.00;;;;;;4990545;28;20172;-65
2022/12/08 08:11:28;;;;;;;32.80;9.87;;;3.90;1.00;;;;;;4989391;28;20424;-66
2022/12/08 08:13:55;;;;;;;20.30;10.50;;;4.10;1.00;;;;;;4994203;28;20978;-66
2022/12/08 08:16:20;;;;;;;16.30;10.30;;;4.00;1.00;;;;;;4994928;28;20177;-67
2022/12/08 08:18:48;;;;;;;27.97;11.47;;;4.10;1.00;;;;;;4995269;28;20462;-67
2022/12/08 08:21:14;;;;;;;17.97;11.50;;;4.30;1.00;;;;;;4993942;28;20328;-67
2022/12/08 08:23:39;;;;;;;16.70;11.10;;;4.10;1.00;;;;;;4995111;28;20491;-66
2022/12/08 08:26:05;;;;;;;23.70;11.67;;;3.70;1.00;;;;;;4994231;28;20483;-67
2022/12/08 08:28:31;;;;;;;30.70;13.87;;;3.30;1.00;;;;;;4995058;28;20629;-66
2022/12/08 08:30:58;;;;;;;84.03;16.53;;;3.20;1.00;;;;;;4994036;28;20189;-68
2022/12/08 08:33:25;;;;;;;19.80;10.93;;;3.20;98.70;;;;;;5005628;28;20498;-66
2022/12/08 08:35:51;;;;;;;42.70;13.50;;;3.20;99.90;;;;;;5013720;28;20473;-67
2022/12/08 08:38:16;;;;;;;45.47;14.20;;;3.10;99.90;;;;;;5014488;28;20451;-65
2022/12/08 08:40:42;;;;;;;31.67;13.23;;;3.30;99.90;;;;;;5012525;28;20292;-67
2022/12/08 08:43:08;;;;;;;20.10;10.50;;;3.20;99.90;;;;;;5012943;28;20160;-64
2022/12/08 08:45:34;;;;;;;20.10;11.60;;;3.00;99.90;;;;;;5012685;28;20275;-66
2022/12/08 08:48:00;;;;;;;17.40;11.07;;;2.70;1.00;;;;;;5013505;28;20160;-65
2022/12/08 08:50:26;;;;;;;21.80;9.73;;;2.50;1.00;;;;;;5012301;28;20481;-67
2022/12/08 08:52:52;;;;;;;24.00;11.43;;;2.30;1.00;;;;;;5012834;28;20649;-67
2022/12/08 08:55:18;;;;;;;18.90;10.03;;;2.40;1.00;;;;;;5012458;28;20431;-67
2022/12/08 08:57:44;;;;;;;19.80;12.10;;;2.60;1.00;;;;;;5012904;28;20951;-67
2022/12/08 09:00:10;;;;;;;42.60;11.93;;;2.70;60.70;;;;;;5012371;28;20423;-67
2022/12/08 09:02:37;;;;;;;19.70;11.07;;;2.60;99.90;;;;;;5012321;28;20172;-68
2022/12/08 09:05:03;;;;;;;18.63;11.97;;;2.40;99.90;;;;;;5012600;28;20415;-67
2022/12/08 09:07:29;;;;;;;26.93;13.60;;;2.30;1.00;;;;;;5016196;28;20410;-66
2022/12/08 09:09:55;;;;;;;22.27;12.40;;;2.00;99.90;;;;;;5021035;28;20947;-67
2022/12/08 09:12:21;;;;;;;21.30;11.67;;;2.20;1.00;;;;;;5011786;28;20168;-66
2022/12/08 09:14:47;;;;;;;24.47;13.30;;;2.10;1.00;;;;;;5012757;28;20762;-67
2022/12/08 09:17:12;;;;;;;25.60;12.13;;;2.40;1.00;;;;;;5012756;28;20168;-67
2022/12/08 09:19:38;;;;;;;25.27;11.83;;;2.30;1.00;;;;;;5012418;28;20543;-67
2022/12/08 09:22:04;;;;;;;26.30;12.23;;;2.30;1.00;;;;;;5011595;28;20172;-66
2022/12/08 09:24:29;;;;;;;23.97;12.60;;;2.30;99.90;;;;;;5012577;28;20235;-65
2022/12/08 09:26:55;;;;;;;32.13;13.80;;;2.50;1.00;;;;;;5012390;28;20168;-67
2022/12/08 09:29:21;;;;;;;25.77;12.57;;;2.70;99.90;;;;;;5012508;28;20587;-68
2022/12/08 09:31:47;;;;;;;22.23;10.40;;;2.90;99.90;;;;;;5011437;28;20559;-68
2022/12/08 09:34:13;;;;;;;19.80;11.73;;;2.80;1.00;;;;;;5012112;28;20586;-67
2022/12/08 09:36:39;;;;;;;19.43;11.43;;;3.10;99.90;;;;;;5011962;28;20689;-67
2022/12/08 09:39:05;;;;;;;18.43;10.50;;;3.20;1.00;;;;;;5012086;28;20211;-67
2022/12/08 09:41:32;;;;;;;17.33;10.53;;;2.80;1.00;;;;;;5010589;28;20431;-67
2022/12/08 09:44:10;;;;;;;18.87;11.90;;;2.60;99.90;;;;;;5011680;28;20494;-66
2022/12/08 09:46:37;;;;;;;20.73;12.60;;;2.60;1.00;;;;;;5011742;28;20496;-67
2022/12/08 09:49:04;;;;;;;19.63;10.83;;;2.90;1.00;;;;;;5011859;28;20844;-69
2022/12/08 09:51:36;;;;;;;16.60;10.50;;;3.00;99.90;;;;;;5010808;28;20586;-67
2022/12/08 09:54:07;;;;;;;18.33;11.37;;;3.00;1.00;;;;;;5011773;28;20411;-67
2022/12/08 09:56:35;;;;;;;21.70;11.87;;;3.20;1.00;;;;;;5011685;28;20939;-66
2022/12/08 09:59:22;;;;;;;16.90;11.47;;;3.50;99.90;;;;;;5011702;28;20959;-67
2022/12/08 10:01:48;;;;;;;19.83;11.87;;;3.20;99.90;;;;;;5010951;28;20931;-67
2022/12/08 10:04:25;;;;;;;24.87;12.10;;;3.10;99.90;;;;;;5011419;28;20416;-68
2022/12/08 10:07:03;;;;;;;19.60;10.70;;;3.30;1.00;;;;;;5011472;28;20402;-67
2022/12/08 10:09:45;;;;;;;21.70;11.70;;;3.50;99.90;;;;;;5011440;28;20418;-66
2022/12/08 10:12:16;;;;;;;16.30;10.13;;;3.40;99.90;;;;;;5010316;28;20490;-65
2022/12/08 10:15:03;;;;;;;16.67;11.93;;;3.30;99.90;;;;;;5011970;28;20438;-64
2022/12/08 10:17:39;;;;;;;22.00;12.80;;;3.40;1.00;;;;;;5012975;28;20467;-65
2022/12/08 10:20:13;;;;;;;27.63;16.93;;;3.50;1.00;;;;;;5011757;28;20950;-67
2022/12/08 10:22:39;;;;;;;31.90;15.30;;;3.60;99.90;;;;;;5011517;28;20774;-65
2022/12/08 10:25:21;;;;;;;39.80;15.43;;;3.70;99.90;;;;;;5011217;28;20406;-64
2022/12/08 10:27:52;;;;;;;18.47;14.23;;;3.50;99.90;;;;;;5010632;28;20184;-65
2022/12/08 10:30:20;;;;;;;19.67;14.97;;;3.50;99.90;;;;;;5011211;28;20438;-65
2022/12/08 10:32:48;;;;;;;24.37;14.83;;;3.10;99.90;;;;;;5011251;28;20422;-64
2022/12/08 10:35:17;;;;;;;22.13;14.70;;;3.10;99.20;;;;;;5010777;28;20442;-64
2022/12/08 10:38:00;;;;;;;27.57;16.60;;;3.10;1.00;;;;;;5011428;28;20459;-64
2022/12/08 10:40:33;;;;;;;21.27;14.50;;;3.30;1.00;;;;;;5010183;28;20561;-65
2022/12/08 10:42:59;;;;;;;18.87;13.60;;;3.50;99.90;;;;;;5011538;28;20402;-65
2022/12/08 10:45:28;;;;;;;19.73;14.40;;;3.30;99.90;;;;;;5011147;28;20415;-63
2022/12/08 10:48:12;;;;;;;23.03;15.07;;;3.30;1.00;;;;;;5011704;28;20573;-66
2022/12/08 10:50:51;;;;;;;31.23;17.27;;;3.30;1.00;;;;;;5010241;28;20841;-66
2022/12/08 10:53:43;;;;;;;33.17;13.80;;;3.30;1.00;;;;;;5011771;28;20714;-65
2022/12/08 10:56:16;;;;;;;21.70;14.50;;;3.40;1.00;;;;;;5010929;28;20719;-65
2022/12/08 10:58:44;;;;;;;19.70;13.70;;;3.50;1.00;;;;;;5011678;28;20955;-64
2022/12/08 11:01:10;;;;;;;25.97;15.67;;;3.50;1.00;;;;;;5009944;28;20459;-63
2022/12/08 11:03:47;;;;;;;15.80;12.00;;;3.40;1.00;;;;;;5011501;28;20412;-65
2022/12/08 11:06:24;;;;;;;25.63;13.90;;;3.10;1.00;;;;;;5010957;28;20160;-63
2022/12/08 11:08:58;;;;;;;19.20;12.77;;;3.30;99.90;;;;;;5011274;28;20438;-65
2022/12/08 11:11:42;;;;;;;19.20;12.63;;;3.30;99.90;;;;;;5009706;28;20474;-63
2022/12/08 11:14:17;;;;;;;20.13;12.80;;;3.40;99.90;;;;;;5011147;28;20403;-65
2022/12/08 11:16:43;;;;;;;14.60;9.83;;;3.50;1.00;;;;;;5010865;28;20774;-65
2022/12/08 11:19:18;;;;;;;39.83;14.40;;;3.10;99.90;;;;;;5010896;28;20451;-66
2022/12/08 11:21:44;;;;;;;21.77;13.70;;;3.20;1.00;;;;;;5009979;28;20207;-65
2022/12/08 11:24:13;;;;;;;22.17;12.50;;;3.40;99.90;;;;;;5009056;28;20450;-66
2022/12/08 11:26:43;;;;;;;17.47;12.43;;;3.30;99.90;;;;;;5010209;28;20415;-64
2022/12/08 11:29:10;;;;;;;21.73;13.23;;;3.60;1.00;;;;;;5009795;28;20497;-66
2022/12/08 11:31:45;;;;;;;22.80;13.30;;;3.70;1.00;;;;;;5010086;28;20435;-66
2022/12/08 11:34:18;;;;;;;23.50;13.70;;;3.80;1.00;;;;;;4993655;28;20419;-66
2022/12/08 11:36:45;;;;;;;21.10;14.43;;;3.50;1.00;;;;;;4991162;28;20420;-65
2022/12/08 11:39:11;;;;;;;23.97;15.57;;;3.30;1.00;;;;;;4999421;28;20463;-64
2022/12/08 11:41:43;;;;;;;30.40;18.57;;;3.20;1.00;;;;;;4993364;28;20515;-64
2022/12/08 11:44:14;;;;;;;23.40;17.80;;;3.10;99.90;;;;;;4990535;28;20408;-64
2022/12/08 11:46:50;;;;;;;22.03;15.77;;;3.10;99.90;;;;;;4992524;28;20515;-65
2022/12/08 11:49:17;;;;;;;29.07;17.33;;;3.20;1.00;;;;;;4998604;28;20415;-66
2022/12/08 11:52:21;;;;;;;94.57;23.20;;;3.40;99.90;;;;;;4997645;28;20451;-66
2022/12/08 11:55:00;;;;;;;23.70;16.27;;;3.70;99.90;;;;;;4975615;28;20420;-66
2022/12/08 11:57:27;;;;;;;70.80;21.17;;;3.60;1.00;;;;;;4996698;28;20455;-64
2022/12/08 11:59:56;;;;;;;77.60;21.33;;;3.70;20.40;;;;;;4994779;28;20424;-66
2022/12/08 12:02:30;;;;;;;26.30;13.87;;;3.80;1.00;;;;;;4993804;28;20478;-66
2022/12/08 12:05:20;;;;;;;29.93;14.83;;;3.80;1.00;;;;;;5002973;28;20466;-66
2022/12/08 12:08:29;;;;;;;88.83;24.47;;;4.10;1.00;;;;;;5014224;28;20529;-61
2022/12/08 12:11:01;;;;;;;146.57;26.90;;;4.10;1.00;;;;;;4993200;28;20436;-65
2022/12/08 12:13:40;;;;;;;58.03;20.27;;;4.10;99.90;;;;;;4994881;28;20413;-67
2022/12/08 12:16:34;;;;;;;53.37;17.80;;;3.90;99.90;;;;;;5011488;28;20586;-64
2022/12/08 12:19:03;;;;;;;29.30;15.83;;;4.00;1.00;;;;;;5009693;28;20537;-67
2022/12/08 12:21:42;;;;;;;26.87;16.03;;;4.10;99.90;;;;;;4992849;28;20915;-67
2022/12/08 12:24:13;;;;;;;41.00;18.20;;;4.20;99.90;;;;;;4993763;28;20419;-67
2022/12/08 12:26:57;;;;;;;33.07;15.80;;;4.10;99.90;;;;;;5002858;28;20427;-66
2022/12/08 12:29:26;;;;;;;23.90;15.90;;;4.10;99.90;;;;;;4994572;28;20435;-66
2022/12/08 12:32:06;;;;;;;38.20;14.97;;;4.10;99.90;;;;;;5006831;28;20422;-66
2022/12/08 12:34:37;;;;;;;22.23;15.30;;;3.80;99.90;;;;;;5008654;28;20438;-66
2022/12/08 12:37:13;;;;;;;22.80;14.00;;;3.70;99.90;;;;;;5007519;28;20780;-66
2022/12/08 12:39:53;;;;;;;25.30;14.97;;;3.60;99.90;;;;;;5003154;28;20886;-67
2022/12/08 12:42:50;;;;;;;18.03;13.13;;;3.70;99.90;;;;;;5004993;28;20439;-66
2022/12/08 12:45:16;;;;;;;28.10;14.47;;;3.70;99.90;;;;;;4984702;28;20438;-67
2022/12/08 12:48:05;;;;;;;25.70;15.83;;;3.50;99.90;;;;;;5006356;28;20412;-67
2022/12/08 12:50:33;;;;;;;23.57;16.03;;;3.50;1.00;;;;;;4982427;28;20740;-67
2022/12/08 12:53:25;;;;;;;28.97;15.90;;;3.70;99.90;;;;;;5011552;28;20439;-64
2022/12/08 12:55:55;;;;;;;28.77;15.70;;;3.70;99.90;;;;;;5011678;28;20431;-66
2022/12/08 12:58:27;;;;;;;18.80;13.67;;;3.70;99.90;;;;;;4993114;28;20544;-66
2022/12/08 13:01:11;;;;;;;21.33;14.90;;;3.90;99.90;;;;;;4992643;28;20906;-65
2022/12/08 13:03:49;;;;;;;25.47;16.13;;;4.00;91.20;;;;;;5015138;28;20493;-66